Time;durP1;ratioP1;P1;durP2;ratioP2;P2;SDS_P1;SDS_P2;PMS_P1;PMS_P2;Temp;Humidity;BMP_temperature;BMP_pressure;BME280_temperature;BME280_humidity;BME280_pressure;Samples;Min_cycle;Max_cycle;Signal;HPM_P1;HPM_P2
2022/02/11 00:02:17;;;;;;;3.33;0.80;;;;;;;2.11;68.66;98577.19;5080778;28;20089;-46
2022/02/11 00:07:30;;;;;;;1.95;0.77;;;;;;;2.11;68.17;98569.50;5074851;28;20134;-47
2022/02/11 00:09:56;;;;;;;2.00;0.55;;;;;;;2.02;68.47;98552.59;5091138;28;20044;-48
2022/02/11 00:12:22;;;;;;;5.63;0.90;;;;;;;2.13;68.16;98578.03;5086370;28;20412;-46
2022/02/11 00:17:28;;;;;;;;;;;;;;;2.09;68.12;98572.09;5109960;28;20043;-46
2022/02/11 00:19:55;;;;;;;1.90;0.80;;;;;;;1.97;68.39;98553.53;5092709;28;19981;-47
2022/02/11 00:22:20;;;;;;;3.80;0.85;;;;;;;2.08;68.20;98572.13;5093030;28;20089;-47
2022/02/11 00:24:46;;;;;;;3.95;0.77;;;;;;;2.05;68.50;98562.78;5093337;28;20453;-46
2022/02/11 00:35:35;;;;;;;3.15;0.73;;;;;;;2.00;68.09;98556.03;5093024;28;20046;-48
2022/02/11 00:38:07;;;;;;;1.73;0.73;;;;;;;2.07;68.39;98578.13;5092824;28;20042;-46
2022/02/11 00:41:52;;;;;;;2.10;0.70;;;;;;;2.04;68.33;98567.94;5076649;28;20128;-45
2022/02/11 01:04:36;;;;;;;1.70;0.70;;;;;;;2.04;67.50;98558.50;5112871;28;20051;-47
2022/02/11 01:07:03;;;;;;;5.90;0.80;;;;;;;2.05;67.81;98561.94;5112185;28;20073;-46
2022/02/11 01:09:29;;;;;;;3.40;0.90;;;;;;;2.10;67.84;98565.25;5112200;28;20097;-46
2022/02/11 01:11:58;;;;;;;3.88;0.80;;;;;;;2.00;67.55;98546.63;5095553;28;20094;-47
2022/02/11 01:14:39;;;;;;;;;;;;;;;2.07;67.47;98570.44;5092493;28;20035;-47
2022/02/11 01:17:32;;;;;;;1.83;0.68;;;;;;;2.08;67.24;98567.00;5095947;28;19923;-46
2022/02/11 01:52:15;;;;;;;4.70;0.90;;;;;;;2.02;67.19;98549.19;5112714;28;20065;-45
2022/02/11 01:55:06;;;;;;;3.83;0.65;;;;;;;1.97;66.99;98536.44;5111399;28;20062;-46
2022/02/11 02:26:51;;;;;;;4.43;1.20;;;;;;;1.91;66.60;98545.97;5114498;27;20122;-45
2022/02/11 02:34:38;;;;;;;2.00;0.80;;;;;;;2.00;66.31;98528.69;5113131;27;20070;-46
2022/02/11 02:58:26;;;;;;;2.15;0.68;;;;;;;1.73;66.23;98500.19;5130744;27;20437;-47
2022/02/11 03:01:10;;;;;;;2.95;0.85;;;;;;;1.93;66.77;98523.72;5114751;28;20043;-47
2022/02/11 03:17:59;;;;;;;1.85;1.05;;;;;;;1.90;66.46;98518.63;5087669;28;20055;-46
2022/02/11 03:34:33;;;;;;;3.53;0.90;;;;;;;1.78;67.04;98517.13;5131476;28;20078;-46
2022/02/11 04:25:27;;;;;;;5.97;1.70;;;;;;;1.81;67.28;98511.13;5133881;27;20039;-48
2022/02/11 04:56:48;;;;;;;3.83;1.13;;;;;;;1.70;67.55;98501.06;5037431;28;20045;-47
2022/02/11 05:01:58;;;;;;;4.95;1.27;;;;;;;1.69;67.78;98510.47;5066252;28;20508;-46
2022/02/11 05:04:24;;;;;;;3.38;0.80;;;;;;;1.75;67.86;98524.03;5133198;27;20034;-46
2022/02/11 05:06:50;;;;;;;6.53;1.13;;;;;;;1.80;67.71;98520.53;5133503;27;20513;-49
2022/02/11 05:09:15;;;;;;;5.10;1.40;;;;;;;1.85;67.69;98523.00;5131043;27;20066;-45
2022/02/11 05:11:41;;;;;;;8.63;1.08;;;;;;;1.95;67.59;98537.34;5132518;27;20043;-45
2022/02/11 05:14:08;;;;;;;4.82;1.00;;;;;;;1.92;67.26;98528.00;5133198;27;20050;-47
2022/02/11 05:16:33;;;;;;;3.50;0.60;;;;;;;1.85;67.47;98534.09;5114652;27;20046;-45
2022/02/11 05:18:59;;;;;;;2.70;0.68;;;;;;;1.79;67.75;98529.09;5133060;27;20043;-47
2022/02/11 05:21:26;;;;;;;6.00;1.10;;;;;;;1.82;67.97;98531.59;5132581;27;20159;-48
2022/02/11 05:23:52;;;;;;;3.17;0.80;;;;;;;1.69;68.13;98525.84;5133460;27;20141;-46
2022/02/11 05:26:19;;;;;;;3.83;0.82;;;;;;;1.81;67.91;98541.88;5132645;27;20057;-45
2022/02/11 05:28:45;;;;;;;4.60;1.25;;;;;;;1.69;67.92;98519.88;5115142;27;20461;-47
2022/02/11 05:31:10;;;;;;;1.50;0.68;;;;;;;1.81;68.11;98544.44;5133474;27;20075;-46
2022/02/11 05:33:36;;;;;;;3.33;1.42;;;;;;;1.82;68.24;98543.56;5133307;27;20414;-46
2022/02/11 05:36:04;;;;;;;4.93;1.20;;;;;;;1.87;68.03;98544.34;5132268;27;20039;-47
2022/02/11 05:38:30;;;;;;;6.35;0.93;;;;;;;1.92;67.95;98555.34;5114863;27;20088;-47
2022/02/11 05:40:56;;;;;;;1.92;0.95;;;;;;;1.91;67.84;98539.13;5132585;27;20035;-45
2022/02/11 05:43:21;;;;;;;3.83;0.90;;;;;;;1.92;68.01;98535.69;5133176;27;20078;-45
2022/02/11 05:45:47;;;;;;;3.53;0.93;;;;;;;1.90;68.13;98547.66;5132543;27;20046;-45
2022/02/11 05:48:13;;;;;;;4.00;0.98;;;;;;;1.79;67.86;98541.88;5132494;27;20059;-45
2022/02/11 05:50:38;;;;;;;5.35;1.55;;;;;;;1.88;68.18;98543.47;5133336;27;20530;-45
2022/02/11 05:53:05;;;;;;;6.07;1.15;;;;;;;1.92;68.09;98552.78;5132818;27;20494;-45
2022/02/11 05:55:32;;;;;;;4.63;1.45;;;;;;;1.90;68.03;98544.25;5132668;27;20506;-46
2022/02/11 05:57:58;;;;;;;2.97;1.08;;;;;;;1.93;68.18;98550.19;5113847;27;20051;-45
2022/02/11 06:00:24;;;;;;;8.15;1.30;;;;;;;1.93;68.11;98545.06;5132599;27;20521;-48
2022/02/11 06:02:49;;;;;;;7.85;1.30;;;;;;;1.94;68.27;98545.88;5114140;27;20043;-47
2022/02/11 06:05:16;;;;;;;6.03;1.40;;;;;;;1.85;68.16;98546.91;5098532;28;20035;-47
2022/02/11 06:07:43;;;;;;;6.50;1.05;;;;;;;1.88;68.10;98551.16;5111548;28;20047;-45
2022/02/11 06:10:08;;;;;;;6.63;1.67;;;;;;;1.84;68.19;98534.13;5089267;27;20039;-47
2022/02/11 06:12:34;;;;;;;6.35;1.05;;;;;;;2.10;67.99;98548.16;5132338;27;20050;-45
2022/02/11 06:15:00;;;;;;;5.25;1.40;;;;;;;2.08;67.83;98543.94;5132542;27;20054;-45
2022/02/11 06:17:26;;;;;;;3.83;1.20;;;;;;;2.09;67.83;98543.06;5134551;27;20039;-45
2022/02/11 06:19:52;;;;;;;3.67;1.10;;;;;;;2.11;67.88;98543.88;5113404;27;20038;-46
2022/02/11 06:22:19;;;;;;;4.82;1.02;;;;;;;2.08;67.80;98542.22;5132334;27;20066;-48
2022/02/11 06:24:44;;;;;;;5.68;1.52;;;;;;;2.11;67.83;98560.09;5129575;27;20486;-46
2022/02/11 06:27:10;;;;;;;2.63;1.00;;;;;;;2.12;67.86;98546.41;5132372;27;20091;-47
2022/02/11 06:29:36;;;;;;;4.13;1.00;;;;;;;2.10;67.89;98548.16;5132198;27;20088;-46
2022/02/11 06:32:05;;;;;;;3.17;1.30;;;;;;;2.10;67.96;98548.16;5132401;27;20088;-46
2022/02/11 06:34:31;;;;;;;5.50;1.60;;;;;;;2.10;68.00;98548.16;5131337;27;20030;-46
2022/02/11 06:36:57;;;;;;;4.07;1.65;;;;;;;2.17;67.78;98540.34;5131969;27;20043;-46
2022/02/11 06:39:24;;;;;;;8.70;2.13;;;;;;;2.27;67.91;98549.56;5131615;27;20042;-47
2022/02/11 06:41:51;;;;;;;7.22;1.67;;;;;;;2.06;67.91;98520.88;5130269;27;20122;-47
2022/02/11 06:44:17;;;;;;;4.00;0.93;;;;;;;2.24;67.62;98544.50;5113421;27;20048;-46
2022/02/11 06:46:43;;;;;;;6.43;1.55;;;;;;;2.20;68.01;98541.13;5131932;27;20458;-45
2022/02/11 06:49:08;;;;;;;5.00;1.58;;;;;;;2.28;67.51;98539.28;5130977;27;20076;-46
2022/02/11 06:51:34;;;;;;;3.42;1.17;;;;;;;2.19;67.73;98526.66;5131858;27;20088;-44
2022/02/11 06:54:00;;;;;;;12.27;1.80;;;;;;;2.32;67.32;98545.19;5131394;27;20049;-45
2022/02/11 06:56:25;;;;;;;3.55;0.98;;;;;;;2.36;67.33;98546.81;5131078;27;20050;-46
2022/02/11 06:58:53;;;;;;;6.18;1.00;;;;;;;2.33;67.18;98528.91;5130905;27;20601;-46
2022/02/11 07:01:21;;;;;;;4.70;1.15;;;;;;;2.47;67.15;98539.75;5135898;27;20042;-45
2022/02/11 07:03:47;;;;;;;4.15;1.48;;;;;;;2.56;66.78;98542.97;5113212;27;20035;-49
2022/02/11 07:06:13;;;;;;;1.77;0.98;;;;;;;2.65;66.44;98544.50;5134130;27;20514;-46
2022/02/11 07:08:38;;;;;;;3.42;1.60;;;;;;;2.73;66.65;98544.31;5125226;27;20176;-53
2022/02/11 07:11:04;;;;;;;2.28;1.25;;;;;;;2.65;66.18;98533.41;5141397;27;20074;-46
2022/02/11 07:13:30;;;;;;;6.97;1.70;;;;;;;2.84;66.23;98544.94;5152240;27;20413;-45
2022/02/11 07:15:56;;;;;;;5.97;1.30;;;;;;;2.85;65.96;98533.81;5131442;27;20039;-54
2022/02/11 07:18:21;;;;;;;7.22;1.40;;;;;;;2.94;65.57;98546.44;5130817;27;20524;-44
2022/02/11 07:20:49;;;;;;;4.95;1.60;;;;;;;2.93;65.50;98545.59;5130575;27;20042;-49
2022/02/11 07:23:15;;;;;;;10.20;1.85;;;;;;;2.86;65.57;98532.94;5112544;28;20139;-50
2022/02/11 07:25:42;;;;;;;3.58;1.20;;;;;;;3.03;65.36;98553.09;5129969;27;20146;-46
2022/02/11 07:28:08;;;;;;;8.23;1.50;;;;;;;2.88;65.62;98533.72;5136733;27;20125;-48
2022/02/11 07:30:34;;;;;;;3.92;1.55;;;;;;;3.07;65.35;98557.28;5124823;27;20083;-48
2022/02/11 07:33:00;;;;;;;6.47;1.63;;;;;;;3.17;65.18;98551.91;5119286;27;20035;-48
2022/02/11 07:35:26;;;;;;;5.95;1.13;;;;;;;3.37;64.38;98543.72;5140540;27;20066;-45
2022/02/11 07:37:52;;;;;;;8.00;2.28;;;;;;;3.42;64.72;98558.16;5139136;27;20047;-46
2022/02/11 07:40:18;;;;;;;6.03;1.38;;;;;;;3.39;63.98;98535.13;5125060;27;20042;-46
2022/02/11 07:42:46;;;;;;;6.88;1.90;;;;;;;3.56;64.30;98551.88;5130451;28;20043;-46
2022/02/11 07:45:13;;;;;;;5.70;1.67;;;;;;;3.63;63.78;98543.09;5137574;27;20039;-44
2022/02/11 07:47:39;;;;;;;9.02;1.98;;;;;;;3.66;63.52;98549.03;5151932;27;20057;-49
2022/02/11 07:50:07;;;;;;;10.07;1.85;;;;;;;3.82;63.78;98546.91;5099612;28;20515;-52
2022/02/11 07:52:33;;;;;;;7.30;2.33;;;;;;;4.05;63.03;98543.72;5110704;28;20422;-48
2022/02/11 07:54:58;;;;;;;9.05;1.75;;;;;;;4.31;63.00;98535.31;5110531;28;20040;-47
2022/02/11 07:57:24;;;;;;;6.05;1.52;;;;;;;4.45;62.08;98540.94;5114863;28;20039;-50
2022/02/11 07:59:50;;;;;;;5.78;1.63;;;;;;;4.24;61.98;98535.47;5131591;27;20092;-52
2022/02/11 08:02:16;;;;;;;7.70;1.30;;;;;;;4.21;62.07;98539.88;5147652;27;20034;-51
2022/02/11 08:04:42;;;;;;;1.70;1.10;;;;;;;4.27;61.85;98537.13;5137069;27;20042;-50
2022/02/11 08:07:08;;;;;;;5.95;1.77;;;;;;;4.35;62.02;98536.91;5140300;27;20035;-54
2022/02/11 08:09:34;;;;;;;6.43;1.73;;;;;;;4.52;61.78;98534.72;5138107;27;20039;-52
2022/02/11 08:12:00;;;;;;;7.47;2.08;;;;;;;4.59;60.85;98523.38;5126544;28;20066;-52
2022/02/11 08:14:26;;;;;;;7.55;1.70;;;;;;;4.69;60.87;98517.06;5115136;27;20066;-53
2022/02/11 08:16:52;;;;;;;7.13;1.90;;;;;;;4.93;59.63;98541.22;5132939;27;20203;-50
2022/02/11 08:19:22;;;;;;;4.95;1.70;;;;;;;4.89;59.91;98537.91;5151710;27;20568;-50
2022/02/11 08:21:47;;;;;;;7.55;2.30;;;;;;;4.82;60.29;98538.13;5128622;28;20035;-52
2022/02/11 08:24:14;;;;;;;10.18;2.22;;;;;;;4.73;60.47;98539.25;5111856;28;20046;-51
2022/02/11 08:26:40;;;;;;;7.45;1.75;;;;;;;4.70;60.63;98531.63;5112540;28;20051;-52
2022/02/11 08:29:08;;;;;;;9.45;1.83;;;;;;;4.72;60.23;98529.81;5130410;28;20047;-56
2022/02/11 08:31:35;;;;;;;4.10;1.83;;;;;;;4.76;60.49;98546.91;5112311;28;20050;-51
2022/02/11 08:34:00;;;;;;;10.73;2.50;;;;;;;4.89;60.65;98540.47;5133887;27;20047;-49
2022/02/11 08:36:26;;;;;;;7.70;2.25;;;;;;;4.86;59.89;98540.59;5134199;27;20039;-49
2022/02/11 08:38:52;;;;;;;2.40;1.17;;;;;;;4.82;60.28;98546.69;5099055;27;20043;-51
2022/02/11 08:41:17;;;;;;;4.13;1.38;;;;;;;4.73;60.38;98544.38;5134819;27;20034;-52
2022/02/11 08:43:44;;;;;;;6.22;1.80;;;;;;;4.94;60.38;98545.50;5116184;27;20122;-52
2022/02/11 08:46:10;;;;;;;4.97;1.83;;;;;;;5.24;60.01;98536.81;5099082;27;20138;-49
2022/02/11 08:48:36;;;;;;;7.10;2.00;;;;;;;5.42;59.14;98525.94;5134096;27;20122;-51
2022/02/11 08:51:01;;;;;;;8.75;2.20;;;;;;;5.52;58.88;98537.63;5133712;27;20047;-50
2022/02/11 08:53:27;;;;;;;7.65;1.92;;;;;;;5.59;58.56;98527.97;5099186;27;20041;-48
2022/02/11 08:55:54;;;;;;;9.80;2.65;;;;;;;5.63;58.39;98529.56;5098151;27;20047;-50
2022/02/11 08:58:20;;;;;;;12.20;2.08;;;;;;;5.84;58.03;98520.25;5115788;27;20103;-51
2022/02/11 09:00:50;;;;;;;8.13;2.15;;;;;;;5.89;57.47;98537.28;5115891;27;20050;-49
2022/02/11 09:03:15;;;;;;;;;;;;;;;6.09;57.67;98530.59;5134644;27;20058;-49
2022/02/11 09:05:41;;;;;;;9.70;2.08;;;;;;;6.00;57.06;98536.94;5115472;27;19922;-51
2022/02/11 09:08:08;;;;;;;8.43;1.80;;;;;;;5.68;57.00;98511.34;5133934;27;20038;-51
2022/02/11 09:10:33;;;;;;;5.40;1.75;;;;;;;5.82;57.48;98527.19;5115416;27;20043;-55
2022/02/11 09:13:00;;;;;;;6.03;1.98;;;;;;;5.67;57.25;98518.25;5115322;27;20075;-53
2022/02/11 09:15:28;;;;;;;6.35;1.90;;;;;;;5.72;57.27;98531.81;5133761;27;20031;-48
2022/02/11 09:17:55;;;;;;;8.30;1.70;;;;;;;5.90;56.56;98530.41;5133400;27;20039;-50
2022/02/11 09:20:22;;;;;;;4.45;1.75;;;;;;;6.15;56.64;98532.97;5133424;27;20046;-50
2022/02/11 09:22:48;;;;;;;8.52;2.10;;;;;;;6.26;55.95;98533.44;5133833;27;20443;-49
2022/02/11 09:25:15;;;;;;;8.73;2.20;;;;;;;6.66;56.03;98535.41;5133362;27;20046;-52
2022/02/11 09:27:44;;;;;;;11.73;2.05;;;;;;;7.03;54.89;98533.13;5133253;27;20035;-51
2022/02/11 09:30:17;;;;;;;7.68;2.40;;;;;;;8.08;52.99;98532.28;5114877;27;20073;-53
2022/02/11 09:32:44;;;;;;;4.40;1.88;;;;;;;8.58;50.49;98534.47;5133235;27;20051;-52
2022/02/11 09:35:11;;;;;;;9.10;1.98;;;;;;;8.77;49.54;98532.72;5132735;27;20042;-55
2022/02/11 09:37:37;;;;;;;7.97;2.38;;;;;;;8.56;50.35;98528.50;5132791;27;20031;-53
2022/02/11 09:40:08;;;;;;;7.70;2.00;;;;;;;8.61;50.51;98530.88;5133093;27;20431;-50
2022/02/11 09:42:36;;;;;;;5.28;2.03;;;;;;;8.29;49.96;98532.25;5114192;27;20039;-48
2022/02/11 09:45:03;;;;;;;5.82;1.92;;;;;;;8.08;50.52;98531.44;5132531;27;20069;-51
2022/02/11 09:47:29;;;;;;;7.70;1.67;;;;;;;8.33;50.65;98529.50;5114508;27;20118;-50
2022/02/11 09:49:55;;;;;;;8.88;2.30;;;;;;;8.76;50.04;98531.03;5132526;27;20127;-52
2022/02/11 09:52:20;;;;;;;7.78;2.10;;;;;;;8.99;48.58;98534.31;5114990;27;20043;-50
2022/02/11 09:54:46;;;;;;;5.50;2.05;;;;;;;8.55;49.38;98533.72;5132964;27;20494;-51
2022/02/11 09:57:13;;;;;;;6.50;1.90;;;;;;;8.68;49.22;98530.53;5132701;27;20043;-50
2022/02/11 09:59:40;;;;;;;6.13;1.95;;;;;;;8.22;48.41;98529.09;5114544;27;20051;-51
2022/02/11 10:02:06;;;;;;;4.97;1.50;;;;;;;7.95;49.52;98535.47;5132899;27;20051;-51
2022/02/11 10:04:33;;;;;;;7.38;2.08;;;;;;;7.84;49.39;98533.31;5132135;27;20414;-50
2022/02/11 10:06:59;;;;;;;6.53;2.15;;;;;;;7.61;50.50;98541.19;5114368;27;20498;-51
2022/02/11 10:09:25;;;;;;;3.25;1.45;;;;;;;7.42;50.57;98532.50;5132547;27;20046;-49
2022/02/11 10:11:54;;;;;;;6.93;2.10;;;;;;;7.30;51.02;98540.72;5132574;27;20058;-50
2022/02/11 10:14:21;;;;;;;6.38;2.08;;;;;;;7.30;50.58;98538.97;5132155;27;20043;-54
2022/02/11 10:16:55;;;;;;;3.92;1.08;;;;;;;7.22;50.54;98538.44;5131085;27;20050;-52
2022/02/11 10:19:47;;;;;;;6.82;1.90;;;;;;;7.19;50.66;98526.47;5132425;27;20054;-48
2022/02/11 10:22:23;;;;;;;10.25;2.25;;;;;;;7.24;50.22;98531.47;5132280;27;20112;-49
2022/02/11 10:24:50;;;;;;;6.47;2.45;;;;;;;7.29;50.55;98531.28;5132273;27;20528;-50
2022/02/11 10:27:24;;;;;;;4.82;1.60;;;;;;;7.41;50.18;98539.41;5113845;27;20035;-51
2022/02/11 10:29:58;;;;;;;6.68;1.85;;;;;;;7.29;49.95;98529.53;5131716;27;20567;-49
2022/02/11 10:32:37;;;;;;;3.75;1.85;;;;;;;7.33;49.95;98531.09;5131912;27;20035;-50
2022/02/11 10:35:03;;;;;;;3.17;1.02;;;;;;;7.16;49.57;98530.94;5131836;27;20026;-52
2022/02/11 10:37:29;;;;;;;4.10;1.42;;;;;;;7.21;49.42;98522.09;5131666;27;20043;-48
2022/02/11 10:39:57;;;;;;;10.52;1.80;;;;;;;7.43;49.46;98529.00;5113112;27;20428;-51
2022/02/11 10:42:44;;;;;;;5.30;1.45;;;;;;;7.57;48.77;98514.59;5131627;27;20506;-51
2022/02/11 10:45:37;;;;;;;8.95;1.95;;;;;;;7.24;49.32;98529.72;5131394;27;20138;-50
2022/02/11 10:48:18;;;;;;;4.35;1.50;;;;;;;6.81;49.35;98530.53;5131579;27;20510;-50
2022/02/11 10:50:52;;;;;;;3.53;1.20;;;;;;;6.27;49.79;98523.06;5132000;27;20031;-50
2022/02/11 10:53:29;;;;;;;7.65;1.52;;;;;;;6.26;50.18;98533.44;5113485;27;20034;-51
2022/02/11 10:55:56;;;;;;;7.25;1.73;;;;;;;6.44;50.55;98535.34;5112895;27;20123;-54
2022/02/11 10:58:23;;;;;;;5.50;1.52;;;;;;;6.50;49.87;98534.28;5131394;27;20051;-53
2022/02/11 11:00:50;;;;;;;10.30;1.63;;;;;;;6.37;49.98;98529.59;5131452;27;20055;-53
2022/02/11 11:03:16;;;;;;;6.25;1.52;;;;;;;6.50;49.64;98524.81;5113058;27;20457;-49
2022/02/11 11:05:43;;;;;;;6.78;1.67;;;;;;;6.46;49.51;98525.81;5113080;27;20031;-53
2022/02/11 11:08:11;;;;;;;4.50;1.45;;;;;;;6.12;50.72;98521.03;5131185;27;20035;-52
2022/02/11 11:10:46;;;;;;;7.30;1.75;;;;;;;6.01;51.02;98515.41;5131594;27;20080;-53
2022/02/11 11:13:16;;;;;;;3.65;1.42;;;;;;;5.99;50.85;98526.66;5095090;28;20042;-51
2022/02/11 11:15:46;;;;;;;3.65;1.35;;;;;;;5.89;50.96;98532.13;5113315;27;20114;-51
2022/02/11 11:18:13;;;;;;;5.60;1.42;;;;;;;5.91;51.30;98527.75;5130984;27;20190;-51
2022/02/11 11:20:40;;;;;;;6.53;1.63;;;;;;;5.86;50.95;98533.97;5139572;27;20030;-50
2022/02/11 11:23:19;;;;;;;5.55;1.17;;;;;;;5.87;50.95;98527.91;5114990;28;20088;-53
2022/02/11 11:25:52;;;;;;;;;;;;;;;5.75;49.85;98530.88;5128394;27;20123;-56
2022/02/11 11:28:43;;;;;;;6.07;1.42;;;;;;;5.69;49.40;98531.09;5130958;28;19976;-55
2022/02/11 11:31:17;;;;;;;9.35;1.40;;;;;;;5.78;49.58;98526.47;5133160;27;20034;-49
2022/02/11 11:33:44;;;;;;;7.10;1.55;;;;;;;5.81;49.42;98530.69;5131391;27;20126;-52
2022/02/11 11:36:12;;;;;;;4.25;1.50;;;;;;;5.84;50.00;98525.41;5119511;28;20049;-51
2022/02/11 11:38:49;;;;;;;3.90;1.10;;;;;;;5.93;49.79;98528.56;5141138;27;20061;-54
2022/02/11 11:41:22;;;;;;;6.28;1.48;;;;;;;5.99;49.38;98532.66;5098059;28;20519;-55
2022/02/11 11:43:53;;;;;;;7.45;1.40;;;;;;;6.11;49.13;98540.00;5126123;28;20043;-52
2022/02/11 11:46:20;;;;;;;6.50;1.40;;;;;;;6.01;49.24;98535.19;5113128;28;20038;-52
2022/02/11 11:49:00;;;;;;;5.72;1.15;;;;;;;5.90;48.98;98535.56;5130754;27;20043;-51
2022/02/11 11:51:49;;;;;;;5.28;1.38;;;;;;;5.86;48.24;98534.78;5131133;28;20042;-52
2022/02/11 11:54:18;;;;;;;6.57;1.50;;;;;;;5.62;48.38;98532.16;5100718;27;20039;-52
2022/02/11 11:56:53;;;;;;;5.53;1.30;;;;;;;5.56;48.55;98540.94;5132084;27;20430;-52
2022/02/11 11:59:37;;;;;;;5.53;1.75;;;;;;;5.46;49.33;98531.81;5128602;28;20055;-54
2022/02/11 12:02:20;;;;;;;3.40;1.13;;;;;;;5.15;49.95;98534.53;5127407;28;20054;-50
2022/02/11 12:04:49;;;;;;;4.30;1.25;;;;;;;5.18;50.32;98536.19;5109877;28;20047;-56
2022/02/11 12:07:20;;;;;;;6.18;1.20;;;;;;;5.18;50.21;98518.16;5110676;27;20027;-52
2022/02/11 12:09:49;;;;;;;5.63;1.00;;;;;;;5.17;50.27;98543.06;5114483;27;20039;-51
2022/02/11 12:12:19;;;;;;;3.55;1.10;;;;;;;5.16;50.78;98538.81;5089325;27;20074;-49
2022/02/11 12:14:50;;;;;;;4.95;1.60;;;;;;;5.23;50.60;98536.88;5111675;27;20035;-51
2022/02/11 12:17:17;;;;;;;5.05;1.50;;;;;;;5.24;50.63;98539.41;5114412;27;20567;-51
2022/02/11 12:19:45;;;;;;;4.57;1.50;;;;;;;5.19;50.73;98527.53;5110194;27;20066;-54
2022/02/11 12:22:12;;;;;;;4.80;1.42;;;;;;;5.34;50.28;98539.97;5130391;27;20126;-51
2022/02/11 12:27:31;;;;;;;7.28;1.20;;;;;;;5.07;50.49;98544.25;5123890;27;20035;-47
2022/02/11 12:30:08;;;;;;;4.97;1.40;;;;;;;5.00;50.78;98540.16;5099426;27;20070;-50
2022/02/11 12:32:47;;;;;;;6.95;1.35;;;;;;;5.14;50.38;98545.72;5099292;27;20099;-49
2022/02/11 12:35:17;;;;;;;5.30;1.40;;;;;;;4.97;50.60;98538.50;5081559;27;20054;-48
2022/02/11 12:37:45;;;;;;;6.82;1.35;;;;;;;4.86;50.91;98542.31;5099158;27;20506;-50
2022/02/11 12:40:13;;;;;;;6.90;1.35;;;;;;;4.87;50.58;98546.53;5094896;27;20418;-49
2022/02/11 12:42:41;;;;;;;3.08;1.20;;;;;;;4.89;50.66;98549.94;5114956;27;20046;-49
2022/02/11 12:45:09;;;;;;;5.53;1.15;;;;;;;4.60;51.19;98519.91;5133472;27;20043;-48
2022/02/11 12:47:36;;;;;;;10.23;1.77;;;;;;;4.76;50.87;98549.47;5115491;27;20422;-48
2022/02/11 12:50:03;;;;;;;2.67;0.88;;;;;;;4.76;51.40;98546.03;5098513;27;20131;-49
2022/02/11 12:52:34;;;;;;;2.78;1.08;;;;;;;4.69;51.64;98551.38;5082966;27;20043;-54
2022/02/11 12:55:01;;;;;;;4.20;1.60;;;;;;;4.68;51.18;98554.81;5134104;27;20039;-51
2022/02/11 12:57:29;;;;;;;4.60;1.20;;;;;;;4.66;51.19;98561.72;5132299;27;20103;-50
2022/02/11 12:59:57;;;;;;;5.50;1.50;;;;;;;4.62;51.02;98565.28;5131453;27;20058;-51
2022/02/11 13:02:31;;;;;;;3.53;1.40;;;;;;;4.40;51.60;98538.47;5132472;27;20035;-48
2022/02/11 13:05:10;;;;;;;5.13;1.15;;;;;;;4.64;51.46;98560.97;5131112;27;20035;-54
2022/02/11 13:07:42;;;;;;;7.25;1.77;;;;;;;4.74;51.68;98566.69;5113785;27;20039;-50
2022/02/11 13:10:09;;;;;;;1.52;0.73;;;;;;;4.66;51.87;98566.88;5133551;27;20042;-53
2022/02/11 13:12:45;;;;;;;6.57;1.52;;;;;;;4.59;51.59;98569.69;5133671;27;20039;-53
2022/02/11 13:15:13;;;;;;;5.15;1.30;;;;;;;4.62;51.89;98574.75;5132357;27;20031;-53
2022/02/11 13:17:40;;;;;;;5.57;1.23;;;;;;;4.55;52.09;98574.06;5131279;27;20054;-50
2022/02/11 13:20:18;;;;;;;5.03;1.38;;;;;;;4.50;52.41;98580.25;5124344;27;20050;-50
2022/02/11 13:22:45;;;;;;;6.03;1.40;;;;;;;4.40;52.51;98583.94;5131031;27;20066;-49
2022/02/11 13:25:13;;;;;;;5.82;1.10;;;;;;;4.34;52.76;98579.81;5113818;27;20510;-52
2022/02/11 13:27:50;;;;;;;6.88;1.48;;;;;;;4.37;52.75;98587.44;5132103;27;20039;-55
2022/02/11 13:30:23;;;;;;;6.00;1.40;;;;;;;4.29;53.19;98580.84;5129592;27;20107;-51
2022/02/11 13:32:51;;;;;;;5.97;1.33;;;;;;;4.26;53.23;98579.16;5132125;27;20035;-54
2022/02/11 13:35:16;;;;;;;4.78;1.20;;;;;;;4.22;53.46;98583.56;5114203;27;20043;-54
2022/02/11 13:37:45;;;;;;;7.13;1.67;;;;;;;4.25;53.40;98588.63;5097519;27;20039;-49
2022/02/11 13:40:20;;;;;;;3.78;1.40;;;;;;;4.18;53.37;98594.81;5132268;27;20049;-52
2022/02/11 13:43:12;;;;;;;4.00;1.15;;;;;;;4.23;53.22;98595.53;5132132;27;20091;-52
2022/02/11 13:46:07;;;;;;;5.28;1.30;;;;;;;4.25;53.67;98592.91;5127767;27;20678;-50
2022/02/11 13:48:50;;;;;;;3.58;1.08;;;;;;;4.20;53.56;98594.75;5096577;27;20055;-53
2022/02/11 13:51:17;;;;;;;6.70;1.83;;;;;;;4.24;53.59;98586.06;5103017;27;20042;-50
2022/02/11 13:53:47;;;;;;;5.95;1.27;;;;;;;4.23;53.59;98594.69;5110610;27;20553;-52
2022/02/11 13:56:19;;;;;;;5.63;1.25;;;;;;;4.11;54.12;98590.72;5110866;27;20115;-51
2022/02/11 13:59:23;;;;;;;5.25;1.17;;;;;;;4.03;54.16;98599.53;5063682;28;20044;-51
2022/02/11 14:01:49;;;;;;;3.55;1.40;;;;;;;4.06;54.25;98596.84;5030824;28;20036;-53
2022/02/11 14:04:18;;;;;;;9.57;1.50;;;;;;;4.08;54.24;98595.09;5071668;28;20044;-63
2022/02/11 14:06:48;;;;;;;2.60;1.42;;;;;;;3.98;54.04;98602.19;5090628;28;20038;-63
2022/02/11 14:09:36;;;;;;;3.97;1.50;;;;;;;3.93;54.00;98611.72;5092049;28;20042;-66
2022/02/11 14:12:06;;;;;;;6.10;1.05;;;;;;;3.96;54.45;98606.53;5091776;28;20036;-67
2022/02/11 14:14:33;;;;;;;8.20;1.33;;;;;;;3.99;54.32;98619.31;5090473;28;20562;-66
2022/02/11 14:17:00;;;;;;;7.47;1.50;;;;;;;3.98;54.12;98616.78;5091497;28;20174;-67
2022/02/11 14:19:27;;;;;;;1.70;0.88;;;;;;;3.80;54.19;98593.22;5079821;28;20105;-65
2022/02/11 14:21:55;;;;;;;4.78;1.52;;;;;;;3.92;54.66;98622.94;5072084;28;20054;-65
2022/02/11 14:24:22;;;;;;;5.05;1.50;;;;;;;3.86;54.79;98610.22;5088972;28;20495;-71
2022/02/11 14:26:48;;;;;;;7.25;2.00;;;;;;;3.90;54.61;98623.84;5091778;28;20046;-70
2022/02/11 14:29:15;;;;;;;5.03;1.50;;;;;;;3.88;54.86;98623.00;5074053;28;20039;-69
2022/02/11 14:31:42;;;;;;;6.28;1.48;;;;;;;3.78;54.70;98604.41;5105995;28;20034;-66
2022/02/11 14:34:09;;;;;;;4.65;1.52;;;;;;;3.89;55.20;98619.56;5090066;28;20417;-69
2022/02/11 14:36:38;;;;;;;9.40;2.00;;;;;;;3.83;55.22;98623.97;5089708;28;20067;-62
2022/02/11 14:39:07;;;;;;;5.28;1.45;;;;;;;3.82;55.09;98624.84;5088031;28;20040;-68
2022/02/11 14:41:48;;;;;;;;;;;;;;;3.69;54.96;98630.34;5124307;27;20463;-67
2022/02/11 14:44:18;;;;;;;6.13;1.10;;;;;;;3.60;55.58;98626.28;5106654;28;19942;-63
2022/02/11 14:46:44;;;;;;;;;;;;;;;3.49;55.76;98627.38;5100847;28;20051;-70
2022/02/11 14:49:10;;;;;;;4.65;1.27;;;;;;;3.49;56.00;98635.09;5068410;28;19916;-70
2022/02/11 14:51:36;;;;;;;5.38;1.65;;;;;;;3.50;56.15;98635.06;5067525;28;20070;-68
2022/02/11 14:54:08;;;;;;;4.18;1.17;;;;;;;3.39;56.36;98645.59;5067696;28;20577;-67
2022/02/11 14:56:37;;;;;;;7.88;1.05;;;;;;;3.24;56.69;98632.25;5067823;28;20606;-70
2022/02/11 14:59:03;;;;;;;7.45;1.70;;;;;;;3.30;56.39;98648.34;5073782;28;20590;-70
2022/02/11 15:01:30;;;;;;;6.22;1.60;;;;;;;3.29;56.80;98650.97;5074265;28;20055;-68
2022/02/11 15:03:57;;;;;;;5.82;2.13;;;;;;;3.23;56.91;98651.94;5109400;28;20039;-70
2022/02/11 15:06:23;;;;;;;4.70;1.50;;;;;;;3.06;57.24;98628.31;5093349;28;20039;-67
2022/02/11 15:08:49;;;;;;;4.43;1.40;;;;;;;3.12;56.94;98650.47;5081750;27;20107;-70
2022/02/11 15:11:14;;;;;;;6.32;1.40;;;;;;;2.90;57.42;98626.97;5130932;27;20495;-65
2022/02/11 15:13:40;;;;;;;6.18;1.52;;;;;;;3.15;57.15;98660.66;5079574;27;20131;-59
2022/02/11 15:16:06;;;;;;;4.85;1.50;;;;;;;3.15;57.49;98660.66;5113027;27;20047;-66
2022/02/11 15:18:32;;;;;;;4.63;1.77;;;;;;;3.04;57.67;98653.19;5093715;28;20138;-63
2022/02/11 15:21:04;;;;;;;7.82;1.65;;;;;;;3.11;57.80;98667.59;5107058;28;20126;-71
2022/02/11 15:23:37;;;;;;;3.97;1.52;;;;;;;3.06;57.78;98660.84;5080401;28;20035;-70
2022/02/11 15:26:05;;;;;;;3.97;1.95;;;;;;;3.06;57.96;98668.56;5136616;27;20047;-68
2022/02/11 15:28:33;;;;;;;4.20;1.73;;;;;;;3.01;58.48;98666.09;5131321;28;20452;-65
2022/02/11 15:30:59;;;;;;;3.45;1.20;;;;;;;2.97;58.44;98680.72;5131894;28;20075;-67
2022/02/11 15:33:25;;;;;;;6.32;1.60;;;;;;;2.96;58.64;98673.03;5113776;28;20039;-68
2022/02/11 15:35:51;;;;;;;7.78;1.80;;;;;;;2.83;58.49;98661.31;5131831;28;20069;-70
2022/02/11 15:38:17;;;;;;;3.90;1.40;;;;;;;2.84;58.82;98657.88;5121141;27;20050;-68
2022/02/11 15:40:43;;;;;;;4.15;1.50;;;;;;;2.93;59.00;98681.63;5095852;27;20050;-67
2022/02/11 15:43:09;;;;;;;4.32;1.40;;;;;;;2.95;59.12;98674.75;5106548;27;20031;-65
2022/02/11 15:45:35;;;;;;;5.20;1.60;;;;;;;2.93;58.57;98683.38;5113421;27;20502;-64
2022/02/11 15:48:01;;;;;;;6.25;1.25;;;;;;;2.97;58.82;98683.28;5134414;27;20083;-65